Global Wisdom — V7NI9 — position and weather

sailwx.info

Track history (hours):
 
Tides and Currents Weather Stations Pressure Air Temp Water Temp Dewpoint Dewpoint Depression Visibility Wind Speed Wind Dir Waves Ship Positions

Global Wisdom

Last reported at 2018-Aug-01 23:04 UTC. Time now 2018-Aug-19 15:19 UTC.
Position N 48°30' W 126°23'.
Warning: this ship's position is 17 days out of date.

Length 175 m; draft 9.5 m.

Type: Cargo ship. MMSI: 538006462.

Date/timePositionNaut miles runAvg speedWind from/ knotsBaromVisibWave heightAir tempDewpointWater temp
2018-Aug-01 23:04N 48°30' W 126°23'310.3
2018-Aug-01 22:45N 48°30' W 126°18'310.6
2018-Aug-01 22:30N 48°30' W 126°14'510.5
2018-Aug-01 21:59N 48°30' W 126°06'611.1
2018-Aug-01 21:29N 48°30' W 125°58'611.7
2018-Aug-01 20:59N 48°30' W 125°49'511.3
2018-Aug-01 20:30N 48°30' W 125°41'611.2
2018-Aug-01 20:00N 48°30' W 125°32'610.9
2018-Aug-01 19:28N 48°31' W 125°23'511.2
2018-Aug-01 19:00N 48°31' W 125°16'612.0
2018-Aug-01 18:30N 48°30' W 125°06'612.0
2018-Aug-01 18:00N 48°30' W 124°58'612.2
2018-Aug-01 17:30N 48°31' W 124°48'612.3
2018-Aug-01 17:00N 48°29' W 124°39'612.3
2018-Aug-01 16:30N 48°27' W 124°31'611.9
2018-Aug-01 16:00N 48°25' W 124°22'611.6
2018-Aug-01 15:30N 48°22' W 124°14'611.4
2018-Aug-01 15:00N 48°20' W 124°06'611.5
2018-Aug-01 14:28N 48°18' W 123°58'4510.6
2018-Aug-01 10:14N 48°12' W 122°51'613.5
2018-Aug-01 09:45N 48°09' W 122°42'414.0
2018-Aug-01 09:28N 48°06' W 122°39'715.0
2018-Aug-01 09:01N 47°59' W 122°35'713.6
2018-Aug-01 08:30N 47°54' W 122°28'714.3
2018-Aug-01 08:01N 47°47' W 122°26'714.1
2018-Aug-01 07:30N 47°40' W 122°27'4 7.8
2018-Aug-01 07:00N 47°37' W 122°25'4 8.3
2018-Aug-01 06:30N 47°33' W 122°28'714.3
2018-Aug-01 06:00N 47°26' W 122°31'713.2
2018-Aug-01 05:31N 47°20' W 122°33'612.4
2018-Aug-01 05:00N 47°14' W 122°35'713.2
2018-Aug-01 04:30N 47°08' W 122°40'610.5
2018-Aug-01 03:53N 47°11' W 122°48'8 6.5
2018-Aug-01 02:38N 47°04' W 122°55'1 0.1
2018-Jul-31 09:46N 47°03' W 122°54'0 0.0
2018-Jul-31 05:04N 47°03' W 122°54'0 0.0
2018-Jul-31 04:46N 47°03' W 122°54'0 0.0
2018-Jul-31 03:16N 47°03' W 122°54'0 0.0
2018-Jul-31 02:58N 47°03' W 122°54'0 0.0
2018-Jul-31 02:28N 47°03' W 122°54'0 0.0
2018-Jul-30 09:37N 47°03' W 122°54'0 0.0
2018-Jul-30 09:25N 47°03' W 122°54'0 0.0
2018-Jul-30 07:40N 47°03' W 122°54'0 0.0
2018-Jul-30 07:10N 47°03' W 122°54'0 0.0
2018-Jul-28 06:46N 47°03' W 122°54'0 0.0
2018-Jul-28 05:16N 47°03' W 122°54'0 0.0
2018-Jul-28 04:58N 47°03' W 122°54'0 0.0
2018-Jul-28 04:28N 47°03' W 122°54'0 0.0
2018-Jul-27 04:04N 47°03' W 122°54'0 0.1
2018-Jul-27 03:58N 47°03' W 122°54'0 0.0
2018-Jul-26 11:46N 47°03' W 122°54'0 0.0
2018-Jul-26 09:04N 47°03' W 122°54'0 0.0
2018-Jul-26 08:52N 47°03' W 122°54'0 0.0
2018-Jul-26 08:22N 47°03' W 122°54'0 0.0
2018-Jul-26 04:02N 47°03' W 122°54'0 0.0
2018-Jul-26 04:01N 47°03' W 122°54'4 3.3
2018-Jul-26 02:53N 47°07' W 122°55'3 6.1
2018-Jul-26 02:28N 47°09' W 122°54'4 9.2
2018-Jul-26 01:59N 47°10' W 122°47'511.2
2018-Jul-26 01:30N 47°08' W 122°40'713.7
2018-Jul-26 01:00N 47°14' W 122°35'612.7
2018-Jul-26 00:30N 47°20' W 122°33'713.9
2018-Jul-26 00:01N 47°27' W 122°31'714.3
2018-Jul-25 23:31N 47°34' W 122°27'3 6.9
2018-Jul-25 23:00N 47°37' W 122°26'611.3
2018-Jul-25 22:31N 47°43' W 122°28'612.9
2018-Jul-25 22:01N 47°49' W 122°28'714.4
2018-Jul-25 21:30N 47°56' W 122°31'5511.2
2018-Jul-25 16:32N 48°14' W 123°50'110.3
2018-Jul-25 16:28N 48°14' W 123°51'510.1
2018-Jul-25 15:59N 48°14' W 123°58'510.9
2018-Jul-25 15:30N 48°17' W 124°05'510.3
2018-Jul-25 15:00N 48°19' W 124°12'5 9.9
2018-Jul-25 14:30N 48°21' W 124°19'510.1
2018-Jul-25 14:00N 48°23' W 124°26'510.4
2018-Jul-25 13:30N 48°25' W 124°33'510.5
2018-Jul-25 13:00N 48°27' W 124°40'510.6
2018-Jul-25 12:30N 48°29' W 124°48'510.8
2018-Jul-25 12:00N 48°29' W 124°56'612.0
2018-Jul-25 11:30N 48°29' W 125°05'612.3
2018-Jul-25 11:00N 48°29' W 125°14'612.4
2018-Jul-25 10:30N 48°29' W 125°24'712.3
2018-Jul-25 09:56N 48°29' W 125°34'512.0
2018-Jul-25 09:30N 48°29' W 125°42'611.9
2018-Jul-25 09:00N 48°29' W 125°51'612.2
2018-Jul-25 08:30N 48°29' W 126°00'612.3
2018-Jul-25 08:00N 48°29' W 126°09'612.6
2018-Jul-25 07:30N 48°29' W 126°19'612.6
2018-Jul-25 07:00N 48°29' W 126°28'612.6
2018-Jul-25 06:30N 48°30' W 126°38'612.1
2018-Jul-25 05:59N 48°30' W 126°47'712.0
2018-Jul-25 05:24N 48°30' W 126°58'511.9
2018-Jul-25 05:00N 48°30' W 127°05'  
Track history (hours):
 
Tides and Currents Weather Stations Pressure Air Temp Water Temp Dewpoint Dewpoint Depression Visibility Wind Speed Wind Dir Waves Ship Positions

Global Wisdom

Last reported at 2018-Aug-01 23:04 UTC. Time now 2018-Aug-19 15:19 UTC.
Position N 48°30' W 126°23'.
Warning: this ship's position is 17 days out of date.

Length 175 m; draft 9.5 m.

Type: Cargo ship. MMSI: 538006462.

Date/timePositionNaut miles runAvg speedWind from/ knotsBaromVisibWave heightAir tempDewpointWater temp
2018-Aug-01 23:04N 48°30' W 126°23'310.3
2018-Aug-01 22:45N 48°30' W 126°18'310.6
2018-Aug-01 22:30N 48°30' W 126°14'510.5
2018-Aug-01 21:59N 48°30' W 126°06'611.1
2018-Aug-01 21:29N 48°30' W 125°58'611.7
2018-Aug-01 20:59N 48°30' W 125°49'511.3
2018-Aug-01 20:30N 48°30' W 125°41'611.2
2018-Aug-01 20:00N 48°30' W 125°32'610.9
2018-Aug-01 19:28N 48°31' W 125°23'511.2
2018-Aug-01 19:00N 48°31' W 125°16'612.0
2018-Aug-01 18:30N 48°30' W 125°06'612.0
2018-Aug-01 18:00N 48°30' W 124°58'612.2
2018-Aug-01 17:30N 48°31' W 124°48'612.3
2018-Aug-01 17:00N 48°29' W 124°39'612.3
2018-Aug-01 16:30N 48°27' W 124°31'611.9
2018-Aug-01 16:00N 48°25' W 124°22'611.6
2018-Aug-01 15:30N 48°22' W 124°14'611.4
2018-Aug-01 15:00N 48°20' W 124°06'611.5
2018-Aug-01 14:28N 48°18' W 123°58'4510.6
2018-Aug-01 10:14N 48°12' W 122°51'613.5
2018-Aug-01 09:45N 48°09' W 122°42'414.0
2018-Aug-01 09:28N 48°06' W 122°39'715.0
2018-Aug-01 09:01N 47°59' W 122°35'713.6
2018-Aug-01 08:30N 47°54' W 122°28'714.3
2018-Aug-01 08:01N 47°47' W 122°26'714.1
2018-Aug-01 07:30N 47°40' W 122°27'4 7.8
2018-Aug-01 07:00N 47°37' W 122°25'4 8.3
2018-Aug-01 06:30N 47°33' W 122°28'714.3
2018-Aug-01 06:00N 47°26' W 122°31'713.2
2018-Aug-01 05:31N 47°20' W 122°33'612.4
2018-Aug-01 05:00N 47°14' W 122°35'713.2
2018-Aug-01 04:30N 47°08' W 122°40'610.5
2018-Aug-01 03:53N 47°11' W 122°48'8 6.5
2018-Aug-01 02:38N 47°04' W 122°55'1 0.1
2018-Jul-31 09:46N 47°03' W 122°54'0 0.0
2018-Jul-31 05:04N 47°03' W 122°54'0 0.0
2018-Jul-31 04:46N 47°03' W 122°54'0 0.0
2018-Jul-31 03:16N 47°03' W 122°54'0 0.0
2018-Jul-31 02:58N 47°03' W 122°54'0 0.0
2018-Jul-31 02:28N 47°03' W 122°54'0 0.0
2018-Jul-30 09:37N 47°03' W 122°54'0 0.0
2018-Jul-30 09:25N 47°03' W 122°54'0 0.0
2018-Jul-30 07:40N 47°03' W 122°54'0 0.0
2018-Jul-30 07:10N 47°03' W 122°54'0 0.0
2018-Jul-28 06:46N 47°03' W 122°54'0 0.0
2018-Jul-28 05:16N 47°03' W 122°54'0 0.0
2018-Jul-28 04:58N 47°03' W 122°54'0 0.0
2018-Jul-28 04:28N 47°03' W 122°54'0 0.0
2018-Jul-27 04:04N 47°03' W 122°54'0 0.1
2018-Jul-27 03:58N 47°03' W 122°54'0 0.0
2018-Jul-26 11:46N 47°03' W 122°54'0 0.0
2018-Jul-26 09:04N 47°03' W 122°54'0 0.0
2018-Jul-26 08:52N 47°03' W 122°54'0 0.0
2018-Jul-26 08:22N 47°03' W 122°54'0 0.0
2018-Jul-26 04:02N 47°03' W 122°54'0 0.0
2018-Jul-26 04:01N 47°03' W 122°54'4 3.3
2018-Jul-26 02:53N 47°07' W 122°55'3 6.1
2018-Jul-26 02:28N 47°09' W 122°54'4 9.2
2018-Jul-26 01:59N 47°10' W 122°47'511.2
2018-Jul-26 01:30N 47°08' W 122°40'713.7
2018-Jul-26 01:00N 47°14' W 122°35'612.7
2018-Jul-26 00:30N 47°20' W 122°33'713.9
2018-Jul-26 00:01N 47°27' W 122°31'714.3
2018-Jul-25 23:31N 47°34' W 122°27'3 6.9
2018-Jul-25 23:00N 47°37' W 122°26'611.3
2018-Jul-25 22:31N 47°43' W 122°28'612.9
2018-Jul-25 22:01N 47°49' W 122°28'714.4
2018-Jul-25 21:30N 47°56' W 122°31'5511.2
2018-Jul-25 16:32N 48°14' W 123°50'110.3
2018-Jul-25 16:28N 48°14' W 123°51'510.1
2018-Jul-25 15:59N 48°14' W 123°58'510.9
2018-Jul-25 15:30N 48°17' W 124°05'510.3
2018-Jul-25 15:00N 48°19' W 124°12'5 9.9
2018-Jul-25 14:30N 48°21' W 124°19'510.1
2018-Jul-25 14:00N 48°23' W 124°26'510.4
2018-Jul-25 13:30N 48°25' W 124°33'510.5
2018-Jul-25 13:00N 48°27' W 124°40'510.6
2018-Jul-25 12:30N 48°29' W 124°48'510.8
2018-Jul-25 12:00N 48°29' W 124°56'612.0
2018-Jul-25 11:30N 48°29' W 125°05'612.3
2018-Jul-25 11:00N 48°29' W 125°14'612.4
2018-Jul-25 10:30N 48°29' W 125°24'712.3
2018-Jul-25 09:56N 48°29' W 125°34'512.0
2018-Jul-25 09:30N 48°29' W 125°42'611.9
2018-Jul-25 09:00N 48°29' W 125°51'612.2
2018-Jul-25 08:30N 48°29' W 126°00'612.3
2018-Jul-25 08:00N 48°29' W 126°09'612.6
2018-Jul-25 07:30N 48°29' W 126°19'612.6
2018-Jul-25 07:00N 48°29' W 126°28'612.6
2018-Jul-25 06:30N 48°30' W 126°38'612.1
2018-Jul-25 05:59N 48°30' W 126°47'712.0
2018-Jul-25 05:24N 48°30' W 126°58'511.9
2018-Jul-25 05:00N 48°30' W 127°05'  

Dump ship's entire track history